createdAt,value
2023-01-28T00:00:53.399Z,99081.66
2023-01-28T00:03:36.588Z,99083.31
2023-01-28T00:06:26.404Z,99084.91
2023-01-28T00:09:08.619Z,99084.41
2023-01-28T00:11:57.461Z,99089.53
2023-01-28T00:14:39.742Z,99095.81
2023-01-28T00:17:28.421Z,99108.38
2023-01-28T00:20:12.126Z,99106.06
2023-01-28T00:23:01.412Z,99113.47
2023-01-28T00:25:43.748Z,99111.81
2023-01-28T00:28:32.405Z,99106.38
2023-01-28T00:31:18.095Z,99107.47
2023-01-28T00:34:08.393Z,99099.91
2023-01-28T00:36:58.424Z,99097.78
2023-01-28T00:39:47.382Z,99104.25
2023-01-28T00:42:36.354Z,99108.69
2023-01-28T00:45:19.272Z,99101.09
2023-01-28T00:48:10.377Z,99106.88
2023-01-28T00:51:01.354Z,99100.47
2023-01-28T00:53:51.329Z,99108.75
2023-01-28T00:56:44.493Z,99110.41
2023-01-28T00:59:27.226Z,99114.84
2023-01-28T01:02:22.556Z,99105.44
2023-01-28T01:05:04.779Z,99111.34
2023-01-28T01:07:53.445Z,99106.88
2023-01-28T01:10:35.727Z,99119.91
2023-01-28T01:13:24.330Z,99108.59
2023-01-28T01:16:19.563Z,99106.88
2023-01-28T01:19:08.767Z,99094.25
2023-01-28T01:21:51.667Z,99084.84
2023-01-28T01:24:41.368Z,99095.38
2023-01-28T01:27:30.297Z,99085.19
2023-01-28T01:30:26.353Z,99077.69
2023-01-28T01:33:14.637Z,99087.56
2023-01-28T01:36:02.431Z,99097.19
2023-01-28T01:38:51.708Z,99113.94
2023-01-28T01:41:39.443Z,99127.72
2023-01-28T01:44:55.665Z,99116.06
2023-01-28T01:48:03.331Z,99115.53
2023-01-28T01:50:59.662Z,99126.69
2023-01-28T01:53:41.501Z,99136.25
2023-01-28T01:56:35.671Z,99149.31
2023-01-28T01:59:22.357Z,99149.25
2023-01-28T02:02:09.043Z,99142.09
2023-01-28T02:04:59.702Z,99146.25
2023-01-28T02:07:50.755Z,99147.56
2023-01-28T02:10:33.440Z,99145.44
2023-01-28T02:13:17.472Z,99147.94
2023-01-28T02:16:07.367Z,99150.94
2023-01-28T02:18:49.569Z,99153.97
2023-01-28T02:22:13.388Z,99166.28
2023-01-28T02:25:18.418Z,99174.28
2023-01-28T02:28:42.359Z,99180.66
2023-01-28T02:31:40.254Z,99176.50
2023-01-28T02:34:48.437Z,99179.88
2023-01-28T02:37:47.649Z,99185.09
2023-01-28T02:41:03.412Z,99192.06
2023-01-28T02:43:48.614Z,99192.78
2023-01-28T02:46:55.415Z,99200.50
2023-01-28T02:49:44.668Z,99203.97
2023-01-28T02:53:22.362Z,99209.28
2023-01-28T02:56:21.696Z,99218.56
2023-01-28T02:59:41.415Z,99213.47
2023-01-28T03:02:26.756Z,99222.41
2023-01-28T03:05:23.752Z,99215.59
2023-01-28T03:08:26.439Z,99217.00
2023-01-28T03:11:34.371Z,99221.22
2023-01-28T03:14:37.254Z,99227.56
2023-01-28T03:18:00.358Z,99230.63
2023-01-28T03:21:08.327Z,99225.78
2023-01-28T03:24:21.428Z,99226.59
2023-01-28T03:27:41.841Z,99221.63
2023-01-28T03:31:12.370Z,99232.69
2023-01-28T03:34:25.909Z,99230.91
2023-01-28T03:37:08.345Z,99230.44
2023-01-28T03:40:20.201Z,99234.25
2023-01-28T03:43:09.331Z,99232.97
2023-01-28T03:46:01.105Z,99235.34
2023-01-28T03:48:44.390Z,99243.53
2023-01-28T03:51:27.499Z,99244.13
2023-01-28T03:54:16.362Z,99244.31
2023-01-28T03:57:04.715Z,99252.19
2023-01-28T03:59:47.360Z,99251.53
2023-01-28T04:02:37.281Z,99254.06
2023-01-28T04:05:30.401Z,99246.72
2023-01-28T04:08:19.666Z,99246.41
2023-01-28T04:11:27.709Z,99254.47
2023-01-28T04:14:17.624Z,99254.47
2023-01-28T04:17:07.435Z,99258.84
2023-01-28T04:19:58.244Z,99250.28
2023-01-28T04:22:48.359Z,99259.59
2023-01-28T04:25:38.597Z,99257.22
2023-01-28T04:28:21.302Z,99255.44
2023-01-28T04:31:16.172Z,99254.16
2023-01-28T04:34:34.379Z,99252.69
2023-01-28T04:37:49.253Z,99260.63
2023-01-28T04:41:07.337Z,99271.34
2023-01-28T04:43:52.687Z,99273.59
2023-01-28T04:47:01.309Z,99270.81
2023-01-28T04:50:09.350Z,99267.88
2023-01-28T04:53:07.866Z,99267.91
2023-01-28T04:56:21.382Z,99258.53
2023-01-28T04:59:10.621Z,99256.38
2023-01-28T05:01:53.435Z,99256.81
2023-01-28T05:04:42.793Z,99266.09
2023-01-28T05:07:40.336Z,99259.22
2023-01-28T05:10:31.677Z,99249.47
2023-01-28T05:13:15.622Z,99256.84
2023-01-28T05:16:03.590Z,99252.09
2023-01-28T05:18:46.353Z,99245.84
2023-01-28T05:21:29.433Z,99259.97
2023-01-28T05:24:24.350Z,99259.34
2023-01-28T05:27:06.468Z,99255.31
2023-01-28T05:29:55.395Z,99245.03
2023-01-28T05:32:43.661Z,99245.97
2023-01-28T05:35:30.364Z,99236.72
2023-01-28T05:38:15.116Z,99232.69
2023-01-28T05:41:04.316Z,99230.22
2023-01-28T05:43:54.418Z,99217.41
2023-01-28T05:46:47.753Z,99210.06
2023-01-28T05:49:59.387Z,99202.16
2023-01-28T05:52:53.372Z,99203.53
2023-01-28T05:55:40.079Z,99206.97
2023-01-28T05:58:29.312Z,99200.50
2023-01-28T06:01:12.639Z,99194.22
2023-01-28T06:04:07.435Z,99199.72
2023-01-28T06:06:56.612Z,99181.53
2023-01-28T06:09:39.323Z,99178.66
2023-01-28T06:12:23.692Z,99167.88
2023-01-28T06:15:30.521Z,99169.78
2023-01-28T06:18:25.500Z,99173.19
2023-01-28T06:21:15.371Z,99165.44
2023-01-28T06:24:04.659Z,99169.00
2023-01-28T06:26:46.335Z,99168.94
2023-01-28T06:29:35.778Z,99159.41
2023-01-28T06:32:30.356Z,99161.09
2023-01-28T06:35:19.685Z,99167.19
2023-01-28T06:38:02.331Z,99149.84
2023-01-28T06:40:50.636Z,99154.63
2023-01-28T06:43:35.340Z,99155.41
2023-01-28T06:46:24.319Z,99143.34
2023-01-28T06:49:06.596Z,99130.81
2023-01-28T06:51:55.333Z,99128.53
2023-01-28T06:54:37.626Z,99112.09
2023-01-28T06:57:26.326Z,99115.78
2023-01-28T07:00:16.689Z,99112.59
2023-01-28T07:03:05.494Z,99105.25
2023-01-28T07:05:47.794Z,99088.88
2023-01-28T07:08:36.328Z,99081.66
2023-01-28T07:11:25.342Z,99069.28
2023-01-28T07:14:13.628Z,99069.19
2023-01-28T07:16:56.396Z,99059.63
2023-01-28T07:19:45.653Z,99055.19
2023-01-28T07:22:28.402Z,99053.22
2023-01-28T07:25:18.669Z,99049.94
2023-01-28T07:28:02.687Z,99048.47
2023-01-28T07:30:44.635Z,99048.31
2023-01-28T07:33:33.380Z,99044.34
2023-01-28T07:36:15.584Z,99039.19
2023-01-28T07:39:04.403Z,99032.22
2023-01-28T07:41:52.731Z,99035.38
2023-01-28T07:44:46.345Z,99028.09
2023-01-28T07:47:36.784Z,99016.56
2023-01-28T07:50:20.339Z,99013.66
2023-01-28T07:53:05.961Z,99010.72
2023-01-28T07:55:55.323Z,99007.75
2023-01-28T07:58:37.551Z,98995.34
2023-01-28T08:01:27.353Z,98988.81
2023-01-28T08:04:16.863Z,98984.53
2023-01-28T08:07:00.349Z,98983.47
2023-01-28T08:09:49.754Z,98983.72
2023-01-28T08:12:33.702Z,98971.34
2023-01-28T08:15:22.304Z,98970.84
2023-01-28T08:18:06.292Z,98968.56
2023-01-28T08:20:55.373Z,98968.13
2023-01-28T08:23:37.808Z,98956.22
2023-01-28T08:26:35.435Z,98966.88
2023-01-28T08:29:17.802Z,98960.25
2023-01-28T08:32:06.274Z,98946.88
2023-01-28T08:34:55.701Z,98937.47
2023-01-28T08:37:43.599Z,98944.97
2023-01-28T08:40:26.316Z,98949.84
2023-01-28T08:43:15.621Z,98936.41
2023-01-28T08:45:58.493Z,98937.34
2023-01-28T08:48:47.735Z,98929.81
2023-01-28T08:51:30.343Z,98930.03
2023-01-28T08:54:12.753Z,98927.38
2023-01-28T08:57:01.341Z,98928.72
2023-01-28T08:59:50.884Z,98923.78
2023-01-28T09:02:32.533Z,98916.94
2023-01-28T09:05:21.734Z,98918.97
2023-01-28T09:08:04.269Z,98920.84
2023-01-28T09:10:53.284Z,98915.78
2023-01-28T09:13:43.376Z,98915.72
2023-01-28T09:16:32.661Z,98910.94
2023-01-28T09:19:15.883Z,98911.69
2023-01-28T09:22:04.723Z,98907.81
2023-01-28T09:24:46.363Z,98907.09
2023-01-28T09:27:28.565Z,98907.91
2023-01-28T09:30:18.588Z,98903.75
2023-01-28T09:33:06.640Z,98898.84
2023-01-28T09:35:49.282Z,98896.59
2023-01-28T09:38:32.233Z,98892.09
2023-01-28T09:41:50.368Z,98895.97
2023-01-28T09:44:55.232Z,98891.56
2023-01-28T09:47:48.305Z,98900.72
2023-01-28T09:50:49.712Z,98897.06
2023-01-28T09:53:39.387Z,98896.84
2023-01-28T09:56:28.973Z,98900.81
2023-01-28T09:59:32.352Z,98900.00
2023-01-28T10:02:40.641Z,98900.00
2023-01-28T10:05:37.126Z,98901.53
2023-01-28T10:08:29.690Z,98903.16
2023-01-28T10:11:25.312Z,98897.41
2023-01-28T10:14:23.103Z,98895.84
2023-01-28T10:17:34.459Z,98896.84
2023-01-28T10:20:34.106Z,98890.09
2023-01-28T10:23:26.402Z,98886.53
2023-01-28T10:26:41.720Z,98885.47
2023-01-28T10:29:32.271Z,98891.69
2023-01-28T10:32:49.415Z,98888.47
2023-01-28T10:35:43.661Z,98883.91
2023-01-28T10:38:30.313Z,98885.16
2023-01-28T10:41:21.324Z,98886.97
2023-01-28T10:44:05.743Z,98881.84
2023-01-28T10:46:56.344Z,98878.03
2023-01-28T10:49:42.605Z,98878.25
2023-01-28T10:52:31.240Z,98876.97
2023-01-28T10:55:14.615Z,98874.94
2023-01-28T10:58:03.347Z,98868.16
2023-01-28T11:00:53.632Z,98875.91
2023-01-28T11:03:42.775Z,98872.84
2023-01-28T11:06:45.376Z,98871.22
2023-01-28T11:09:37.647Z,98876.66
2023-01-28T11:12:30.298Z,98880.00
2023-01-28T11:15:26.347Z,98877.81
2023-01-28T11:18:18.244Z,98879.47
2023-01-28T11:21:07.086Z,98875.56
2023-01-28T11:24:21.361Z,98871.84
2023-01-28T11:27:23.660Z,98870.38
2023-01-28T11:30:11.285Z,98872.97
2023-01-28T11:33:15.587Z,98872.56
2023-01-28T11:36:21.257Z,98876.06
2023-01-28T11:39:22.826Z,98877.28
2023-01-28T11:42:22.355Z,98870.38
2023-01-28T11:45:04.753Z,98864.81
2023-01-28T11:48:03.363Z,98864.59
2023-01-28T11:51:05.870Z,98858.63
2023-01-28T11:54:18.356Z,98858.69
2023-01-28T11:57:35.834Z,98860.47
2023-01-28T12:00:49.250Z,98862.00
2023-01-28T12:03:57.171Z,98861.25
2023-01-28T12:06:54.776Z,98852.47
2023-01-28T12:09:48.606Z,98857.31
2023-01-28T12:13:01.344Z,98844.78
2023-01-28T12:16:21.833Z,98843.53
2023-01-28T12:19:29.350Z,98836.66
2023-01-28T12:22:44.287Z,98839.13
2023-01-28T12:25:58.561Z,98837.72
2023-01-28T12:28:55.304Z,98831.00
2023-01-28T12:32:24.165Z,98832.19
2023-01-28T12:36:00.337Z,98832.06
2023-01-28T12:39:03.111Z,98833.44
2023-01-28T12:42:02.302Z,98835.41
2023-01-28T12:45:28.363Z,98832.06
2023-01-28T12:48:26.559Z,98823.16
2023-01-28T12:51:30.296Z,98827.88
2023-01-28T12:54:30.340Z,98819.75
2023-01-28T12:57:19.237Z,98821.22
2023-01-28T13:00:41.296Z,98813.81
2023-01-28T13:03:43.230Z,98821.22
2023-01-28T13:06:33.050Z,98822.03
2023-01-28T13:09:34.280Z,98815.28
2023-01-28T13:12:17.959Z,98809.94
2023-01-28T13:15:08.234Z,98810.97
2023-01-28T13:18:08.736Z,98814.44
2023-01-28T13:20:59.396Z,98803.09
2023-01-28T13:23:57.609Z,98800.94
2023-01-28T13:26:51.228Z,98812.69
2023-01-28T13:29:35.775Z,98807.72
2023-01-28T13:32:44.341Z,98817.66
2023-01-28T13:36:01.616Z,98823.41
2023-01-28T13:38:44.309Z,98820.41
2023-01-28T13:41:33.615Z,98827.63
2023-01-28T13:44:34.300Z,98817.47
2023-01-28T13:47:32.467Z,98819.94
2023-01-28T13:50:30.355Z,98825.28
2023-01-28T13:53:49.741Z,98834.75
2023-01-28T13:56:40.305Z,98831.75
2023-01-28T13:59:47.253Z,98838.78
2023-01-28T14:02:46.305Z,98831.22
2023-01-28T14:05:41.749Z,98828.31
2023-01-28T14:08:48.228Z,98833.72
2023-01-28T14:12:14.575Z,98833.56
2023-01-28T14:15:21.414Z,98835.09
2023-01-28T14:18:12.276Z,98839.41
2023-01-28T14:20:57.114Z,98837.16
2023-01-28T14:23:46.338Z,98834.16
2023-01-28T14:26:44.129Z,98841.34
2023-01-28T14:29:58.372Z,98839.50
2023-01-28T14:32:59.285Z,98840.19
2023-01-28T14:35:53.518Z,98836.13
2023-01-28T14:38:36.264Z,98839.63
2023-01-28T14:41:36.289Z,98841.91
2023-01-28T14:44:41.625Z,98836.81
2023-01-28T14:47:53.287Z,98840.50
2023-01-28T14:50:41.572Z,98842.16
2023-01-28T14:53:33.227Z,98851.59
2023-01-28T14:56:42.536Z,98855.28
2023-01-28T14:59:48.337Z,98862.66
2023-01-28T15:02:39.159Z,98867.59
2023-01-28T15:05:35.228Z,98869.63
2023-01-28T15:08:31.286Z,98875.38
2023-01-28T15:11:23.368Z,98874.34
2023-01-28T15:14:06.532Z,98871.69
2023-01-28T15:16:55.836Z,98866.56
2023-01-28T15:19:45.738Z,98872.28
2023-01-28T15:22:32.264Z,98863.94
2023-01-28T15:25:31.011Z,98869.84
2023-01-28T15:28:14.277Z,98866.78
2023-01-28T15:31:03.455Z,98874.72
2023-01-28T15:33:58.206Z,98875.19
2023-01-28T15:36:47.162Z,98879.25
2023-01-28T15:39:38.367Z,98875.75
2023-01-28T15:42:32.878Z,98883.94
2023-01-28T15:45:25.298Z,98885.56
2023-01-28T15:48:09.944Z,98884.75
2023-01-28T15:51:00.266Z,98883.72
2023-01-28T15:53:48.347Z,98873.69
2023-01-28T15:56:42.330Z,98879.59
2023-01-28T15:59:39.547Z,98875.09
2023-01-28T16:02:27.287Z,98882.47
2023-01-28T16:05:25.841Z,98880.63
2023-01-28T16:08:18.238Z,98876.34
2023-01-28T16:11:03.894Z,98886.16
2023-01-28T16:14:05.092Z,98880.63
2023-01-28T16:16:50.093Z,98877.09
2023-01-28T16:19:57.690Z,98880.97
2023-01-28T16:22:48.671Z,98879.75
2023-01-28T16:25:50.396Z,98871.38
2023-01-28T16:28:39.608Z,98883.03
2023-01-28T16:31:22.353Z,98883.41
2023-01-28T16:34:10.625Z,98884.81
2023-01-28T16:37:08.354Z,98871.09
2023-01-28T16:40:02.806Z,98874.84
2023-01-28T16:42:54.320Z,98877.44
2023-01-28T16:45:49.613Z,98875.25
2023-01-28T16:48:34.365Z,98867.66
2023-01-28T16:51:25.523Z,98878.69
2023-01-28T16:54:12.252Z,98876.03
2023-01-28T16:57:13.411Z,98871.69
2023-01-28T17:00:06.065Z,98870.91
2023-01-28T17:02:52.131Z,98871.69
2023-01-28T17:05:41.812Z,98869.25
2023-01-28T17:08:24.225Z,98868.16
2023-01-28T17:11:14.675Z,98870.22
2023-01-28T17:13:57.247Z,98864.50
2023-01-28T17:16:45.488Z,98850.56
2023-01-28T17:19:28.323Z,98849.97
2023-01-28T17:22:16.563Z,98852.03
2023-01-28T17:24:59.359Z,98850.28
2023-01-28T17:27:41.668Z,98843.78
2023-01-28T17:30:33.239Z,98840.78
2023-01-28T17:33:28.137Z,98843.56
2023-01-28T17:36:18.192Z,98838.66
2023-01-28T17:39:08.292Z,98838.25
2023-01-28T17:41:54.516Z,98834.81
2023-01-28T17:44:43.269Z,98825.75
2023-01-28T17:47:26.200Z,98817.84
2023-01-28T17:50:20.539Z,98810.72
2023-01-28T17:53:09.633Z,98803.38
2023-01-28T17:55:54.321Z,98809.47
2023-01-28T17:58:46.524Z,98802.91
2023-01-28T18:01:30.321Z,98798.53
2023-01-28T18:04:19.889Z,98793.22
2023-01-28T18:07:02.212Z,98795.28
2023-01-28T18:09:55.299Z,98804.84
2023-01-28T18:12:38.341Z,98805.44
2023-01-28T18:15:27.617Z,98801.38
2023-01-28T18:18:09.286Z,98806.66
2023-01-28T18:21:09.341Z,98789.88
2023-01-28T18:23:58.418Z,98789.91
2023-01-28T18:26:46.527Z,98789.03
2023-01-28T18:29:31.301Z,98790.44
2023-01-28T18:32:19.531Z,98788.38
2023-01-28T18:35:11.958Z,98785.91
2023-01-28T18:38:01.239Z,98777.53
2023-01-28T18:40:54.647Z,98781.34
2023-01-28T18:43:40.321Z,98769.16
2023-01-28T18:46:29.660Z,98773.22
2023-01-28T18:49:12.193Z,98773.84
2023-01-28T18:52:01.658Z,98769.31
2023-01-28T18:54:44.310Z,98770.34
2023-01-28T18:57:32.490Z,98771.31
2023-01-28T19:00:15.255Z,98783.94
2023-01-28T19:02:58.516Z,98779.34
2023-01-28T19:05:52.221Z,98785.81
2023-01-28T19:08:42.574Z,98777.09
2023-01-28T19:11:25.282Z,98789.22
2023-01-28T19:14:15.137Z,98783.25
2023-01-28T19:16:58.361Z,98782.09
2023-01-28T19:19:46.757Z,98785.47
2023-01-28T19:22:29.256Z,98786.69
2023-01-28T19:25:25.300Z,98787.69
2023-01-28T19:28:14.595Z,98782.06
2023-01-28T19:30:57.326Z,98785.34
2023-01-28T19:33:53.104Z,98780.50
2023-01-28T19:36:43.650Z,98778.59
2023-01-28T19:39:26.699Z,98767.56
2023-01-28T19:42:15.211Z,98771.34
2023-01-28T19:44:57.624Z,98771.41
2023-01-28T19:47:46.291Z,98769.34
2023-01-28T19:50:28.519Z,98768.13
2023-01-28T19:53:17.270Z,98770.72
2023-01-28T19:55:59.717Z,98764.41
2023-01-28T19:58:50.233Z,98760.75
2023-01-28T20:01:34.734Z,98761.59
2023-01-28T20:04:23.201Z,98758.97
2023-01-28T20:07:05.656Z,98755.63
2023-01-28T20:09:55.249Z,98751.81
2023-01-28T20:12:37.698Z,98758.50
2023-01-28T20:15:26.331Z,98759.00
2023-01-28T20:18:08.595Z,98761.50
2023-01-28T20:21:02.364Z,98756.47
2023-01-28T20:23:44.586Z,98759.91
2023-01-28T20:26:36.320Z,98764.72
2023-01-28T20:29:23.466Z,98747.16
2023-01-28T20:32:18.355Z,98749.19
2023-01-28T20:35:14.459Z,98763.28
2023-01-28T20:38:03.606Z,98767.59
2023-01-28T20:40:48.387Z,98767.16
2023-01-28T20:43:37.249Z,98775.97
2023-01-28T20:46:35.366Z,98771.06
2023-01-28T20:49:17.392Z,98761.09
2023-01-28T20:52:06.308Z,98763.78
2023-01-28T20:54:49.570Z,98762.03
2023-01-28T20:57:38.253Z,98752.28
2023-01-28T21:00:27.662Z,98752.75
2023-01-28T21:03:10.273Z,98753.91
2023-01-28T21:05:59.732Z,98752.72
2023-01-28T21:08:42.343Z,98750.19
2023-01-28T21:11:32.506Z,98745.84
2023-01-28T21:14:14.270Z,98751.06
2023-01-28T21:17:03.223Z,98743.13
2023-01-28T21:19:52.158Z,98742.16
2023-01-28T21:22:41.250Z,98743.22
2023-01-28T21:25:23.598Z,98744.50
2023-01-28T21:28:12.251Z,98745.78
2023-01-28T21:30:55.533Z,98751.06
2023-01-28T21:33:45.248Z,98744.75
2023-01-28T21:36:28.556Z,98740.28
2023-01-28T21:39:18.196Z,98752.66
2023-01-28T21:42:00.496Z,98765.53
2023-01-28T21:44:49.273Z,98764.13
2023-01-28T21:47:45.799Z,98769.91
2023-01-28T21:50:27.498Z,98763.34
2023-01-28T21:53:17.180Z,98762.78
2023-01-28T21:56:05.562Z,98739.00
2023-01-28T21:59:06.257Z,98762.09
2023-01-28T22:01:49.112Z,98757.94
2023-01-28T22:04:39.337Z,98761.50
2023-01-28T22:07:28.420Z,98771.50
2023-01-28T22:10:10.222Z,98766.75
2023-01-28T22:12:58.558Z,98764.38
2023-01-28T22:15:41.201Z,98757.47
2023-01-28T22:18:30.245Z,98761.72
2023-01-28T22:21:15.666Z,98777.34
2023-01-28T22:24:04.252Z,98771.63
2023-01-28T22:26:47.522Z,98765.50
2023-01-28T22:29:36.213Z,98773.06
2023-01-28T22:32:18.548Z,98775.31
2023-01-28T22:35:09.153Z,98773.94
2023-01-28T22:37:51.471Z,98767.06
2023-01-28T22:40:42.195Z,98763.22
2023-01-28T22:43:31.203Z,98751.19
2023-01-28T22:46:14.306Z,98754.66
2023-01-28T22:49:04.233Z,98759.44
2023-01-28T22:51:46.467Z,98755.28
2023-01-28T22:54:35.523Z,98742.38
2023-01-28T22:57:17.367Z,98740.50
2023-01-28T23:00:06.198Z,98748.16
2023-01-28T23:02:54.592Z,98752.69
2023-01-28T23:05:37.192Z,98750.56
2023-01-28T23:08:26.185Z,98748.94
2023-01-28T23:11:23.211Z,98752.34
2023-01-28T23:14:24.072Z,98755.09
2023-01-28T23:17:32.233Z,98738.66
2023-01-28T23:20:39.277Z,98752.72
2023-01-28T23:23:42.849Z,98749.81
2023-01-28T23:26:31.248Z,98748.25
2023-01-28T23:29:20.261Z,98741.91
2023-01-28T23:32:10.775Z,98754.59
2023-01-28T23:34:59.261Z,98761.97
2023-01-28T23:37:47.476Z,98762.28
2023-01-28T23:40:32.175Z,98758.44
2023-01-28T23:43:14.593Z,98757.38
2023-01-28T23:46:03.186Z,98748.69
2023-01-28T23:48:45.394Z,98744.78
2023-01-28T23:51:34.151Z,98739.78
2023-01-28T23:54:16.407Z,98746.53
2023-01-28T23:57:05.187Z,98765.00
2023-01-28T23:59:47.336Z,98758.75
